createdAt,value
2023-05-01T00:00:09.664Z,100746.34
2023-05-01T00:02:59.703Z,100737.56
2023-05-01T00:05:28.460Z,100743.75
2023-05-01T00:07:56.709Z,100748.09
2023-05-01T00:10:25.289Z,100747.22
2023-05-01T00:12:53.523Z,100752.63
2023-05-01T00:15:22.152Z,100750.84
2023-05-01T00:17:50.431Z,100757.03
2023-05-01T00:20:19.415Z,100750.75
2023-05-01T00:22:47.872Z,100753.41
2023-05-01T00:25:16.861Z,100749.88
2023-05-01T00:27:45.248Z,100747.22
2023-05-01T00:30:14.043Z,100740.16
2023-05-01T00:32:42.540Z,100743.69
2023-05-01T00:35:11.219Z,100734.81
2023-05-01T00:37:39.876Z,100751.78
2023-05-01T00:40:09.032Z,100736.69
2023-05-01T00:42:39.695Z,100733.16
2023-05-01T00:45:09.263Z,100738.44
2023-05-01T00:47:38.173Z,100734.09
2023-05-01T00:50:07.476Z,100736.63
2023-05-01T00:52:35.924Z,100743.75
2023-05-01T00:55:05.606Z,100735.84
2023-05-01T00:57:34.076Z,100735.84
2023-05-01T01:00:03.718Z,100735.91
2023-05-01T01:02:33.113Z,100734.97
2023-05-01T01:05:01.768Z,100734.97
2023-05-01T01:07:40.477Z,100742.03
2023-05-01T01:10:29.918Z,100734.97
2023-05-01T01:13:22.819Z,100745.66
2023-05-01T01:15:56.376Z,100734.97
2023-05-01T01:18:40.871Z,100738.59
2023-05-01T01:21:17.351Z,100734.97
2023-05-01T01:24:07.321Z,100737.63
2023-05-01T01:27:02.771Z,100738.59
2023-05-01T01:29:31.001Z,100742.19
2023-05-01T01:32:32.656Z,100743.91
2023-05-01T01:35:07.294Z,100742.19
2023-05-01T01:37:43.594Z,100752.88
2023-05-01T01:40:16.833Z,100747.53
2023-05-01T01:43:06.779Z,100744.09
2023-05-01T01:45:42.852Z,100747.53
2023-05-01T01:48:15.651Z,100750.19
2023-05-01T01:50:46.023Z,100742.34
2023-05-01T01:53:18.686Z,100750.28
2023-05-01T01:55:47.970Z,100748.56
2023-05-01T01:58:18.642Z,100754.75
2023-05-01T02:00:47.233Z,100759.16
2023-05-01T02:03:17.871Z,100763.56
2023-05-01T02:05:47.423Z,100765.34
2023-05-01T02:08:17.018Z,100763.56
2023-05-01T02:10:45.964Z,100761.91
2023-05-01T02:13:16.726Z,100763.72
2023-05-01T02:15:46.507Z,100762.75
2023-05-01T02:18:15.298Z,100760.00
2023-05-01T02:20:44.655Z,100760.97
2023-05-01T02:23:13.626Z,100760.09
2023-05-01T02:25:43.951Z,100753.03
2023-05-01T02:28:14.227Z,100751.31
2023-05-01T02:30:42.518Z,100745.09
2023-05-01T02:33:11.379Z,100751.31
2023-05-01T02:35:41.551Z,100755.78
2023-05-01T02:38:13.165Z,100746.81
2023-05-01T02:40:44.882Z,100742.44
2023-05-01T02:43:16.878Z,100745.97
2023-05-01T02:45:46.389Z,100749.41
2023-05-01T02:48:19.311Z,100741.66
2023-05-01T02:50:49.785Z,100744.22
2023-05-01T02:53:19.052Z,100737.16
2023-05-01T02:56:05.110Z,100740.63
2023-05-01T02:58:34.959Z,100743.28
2023-05-01T03:01:03.667Z,100730.03
2023-05-01T03:03:32.253Z,100738.91
2023-05-01T03:06:00.841Z,100746.91
2023-05-01T03:08:29.477Z,100734.50
2023-05-01T03:10:57.944Z,100738.13
2023-05-01T03:13:26.520Z,100731.06
2023-05-01T03:15:55.188Z,100740.78
2023-05-01T03:18:24.001Z,100736.31
2023-05-01T03:20:57.191Z,100733.63
2023-05-01T03:23:28.535Z,100732.78
2023-05-01T03:25:57.992Z,100728.41
2023-05-01T03:28:27.594Z,100727.53
2023-05-01T03:30:56.374Z,100735.44
2023-05-01T03:33:25.185Z,100731.91
2023-05-01T03:36:04.368Z,100725.63
2023-05-01T03:38:34.990Z,100729.16
2023-05-01T03:41:11.976Z,100730.09
2023-05-01T03:44:00.840Z,100722.22
2023-05-01T03:46:49.332Z,100730.09
2023-05-01T03:49:24.100Z,100728.41
2023-05-01T03:51:52.733Z,100720.47
2023-05-01T03:54:21.536Z,100720.47
2023-05-01T03:57:00.777Z,100723.06
2023-05-01T03:59:29.891Z,100726.69
2023-05-01T04:01:58.276Z,100721.34
2023-05-01T04:04:30.254Z,100723.16
2023-05-01T04:07:00.334Z,100730.28
2023-05-01T04:09:30.212Z,100714.28
2023-05-01T04:11:59.079Z,100722.38
2023-05-01T04:14:29.470Z,100724.97
2023-05-01T04:16:59.420Z,100721.50
2023-05-01T04:19:29.300Z,100721.50
2023-05-01T04:22:00.095Z,100724.16
2023-05-01T04:24:28.831Z,100721.50
2023-05-01T04:26:56.965Z,100721.50
2023-05-01T04:29:25.544Z,100725.75
2023-05-01T04:31:53.865Z,100724.00
2023-05-01T04:34:23.034Z,100721.50
2023-05-01T04:36:52.183Z,100732.19
2023-05-01T04:39:21.194Z,100732.97
2023-05-01T04:41:49.473Z,100733.13
2023-05-01T04:44:18.116Z,100727.63
2023-05-01T04:46:46.725Z,100735.72
2023-05-01T04:49:15.233Z,100725.13
2023-05-01T04:51:43.300Z,100730.28
2023-05-01T04:54:15.153Z,100725.13
2023-05-01T04:56:43.432Z,100736.50
2023-05-01T04:59:12.462Z,100733.97
2023-05-01T05:01:41.329Z,100739.31
2023-05-01T05:04:10.155Z,100731.31
2023-05-01T05:06:38.333Z,100734.84
2023-05-01T05:09:10.775Z,100728.72
2023-05-01T05:11:38.875Z,100731.25
2023-05-01T05:14:12.554Z,100743.78
2023-05-01T05:16:41.050Z,100735.78
2023-05-01T05:19:09.681Z,100740.19
2023-05-01T05:21:42.580Z,100736.50
2023-05-01T05:24:11.118Z,100740.97
2023-05-01T05:26:39.346Z,100728.56
2023-05-01T05:29:07.866Z,100737.50
2023-05-01T05:31:36.032Z,100738.38
2023-05-01T05:34:04.507Z,100728.66
2023-05-01T05:36:33.187Z,100740.25
2023-05-01T05:39:01.685Z,100746.53
2023-05-01T05:41:29.925Z,100739.41
2023-05-01T05:44:01.923Z,100739.41
2023-05-01T05:46:30.696Z,100745.59
2023-05-01T05:48:59.126Z,100755.41
2023-05-01T05:51:28.356Z,100758.88
2023-05-01T05:53:58.136Z,100758.94
2023-05-01T05:56:26.527Z,100762.47
2023-05-01T05:58:55.449Z,100759.16
2023-05-01T06:01:23.504Z,100759.09
2023-05-01T06:03:51.958Z,100761.69
2023-05-01T06:06:20.143Z,100766.09
2023-05-01T06:08:48.713Z,100758.16
2023-05-01T06:11:17.050Z,100766.88
2023-05-01T06:13:45.482Z,100761.59
2023-05-01T06:16:15.426Z,100751.94
2023-05-01T06:18:45.921Z,100760.66
2023-05-01T06:21:14.259Z,100752.66
2023-05-01T06:23:42.938Z,100758.88
2023-05-01T06:26:29.627Z,100758.88
2023-05-01T06:28:58.166Z,100748.19
2023-05-01T06:31:27.630Z,100760.59
2023-05-01T06:33:57.642Z,100762.31
2023-05-01T06:36:44.210Z,100766.72
2023-05-01T06:39:12.686Z,100764.91
2023-05-01T06:41:40.947Z,100765.94
2023-05-01T06:44:09.509Z,100761.53
2023-05-01T06:46:39.592Z,100774.63
2023-05-01T06:49:08.321Z,100778.16
2023-05-01T06:51:36.646Z,100777.19
2023-05-01T06:54:05.042Z,100781.59
2023-05-01T06:56:33.778Z,100776.44
2023-05-01T06:59:02.478Z,100771.00
2023-05-01T07:01:32.669Z,100775.47
2023-05-01T07:04:04.168Z,100772.66
2023-05-01T07:06:32.851Z,100774.38
2023-05-01T07:09:01.306Z,100779.56
2023-05-01T07:11:29.536Z,100769.03
2023-05-01T07:13:58.092Z,100770.78
2023-05-01T07:16:26.325Z,100761.81
2023-05-01T07:18:55.060Z,100761.81
2023-05-01T07:21:23.125Z,100764.50
2023-05-01T07:23:51.597Z,100760.09
2023-05-01T07:26:20.007Z,100760.09
2023-05-01T07:28:48.501Z,100769.19
2023-05-01T07:31:17.220Z,100760.25
2023-05-01T07:33:45.821Z,100763.84
2023-05-01T07:36:14.229Z,100763.84
2023-05-01T07:38:42.624Z,100762.91
2023-05-01T07:41:10.675Z,100769.03
2023-05-01T07:43:39.403Z,100775.66
2023-05-01T07:46:07.733Z,100760.31
2023-05-01T07:48:38.182Z,100759.00
2023-05-01T07:51:07.126Z,100762.53
2023-05-01T07:53:35.715Z,100767.88
2023-05-01T07:56:09.092Z,100766.69
2023-05-01T08:16:55.566Z,100773.91
2023-05-01T08:19:24.625Z,100769.44
2023-05-01T08:21:53.268Z,100780.97
2023-05-01T08:24:23.004Z,100778.91
2023-05-01T08:26:51.552Z,100773.75
2023-05-01T08:29:19.982Z,100780.91
2023-05-01T08:31:48.102Z,100773.84
2023-05-01T08:34:17.719Z,100770.97
2023-05-01T08:36:45.803Z,100786.56
2023-05-01T08:39:15.502Z,100785.81
2023-05-01T08:41:50.268Z,100782.38
2023-05-01T08:44:20.208Z,100772.72
2023-05-01T08:47:14.204Z,100772.91
2023-05-01T08:49:43.309Z,100769.53
2023-05-01T08:52:13.009Z,100770.31
2023-05-01T08:54:44.796Z,100773.13
2023-05-01T08:57:13.493Z,100779.25
2023-05-01T08:59:42.661Z,100772.97
2023-05-01T09:02:10.917Z,100777.38
2023-05-01T09:04:40.929Z,100782.72
2023-05-01T09:07:10.223Z,100781.78
2023-05-01T09:09:38.832Z,100782.44
2023-05-01T09:12:24.034Z,100779.78
2023-05-01T09:14:56.801Z,100792.34
2023-05-01T09:17:25.370Z,100776.25
2023-05-01T09:19:53.859Z,100781.56
2023-05-01T09:22:22.223Z,100785.13
2023-05-01T09:24:51.748Z,100777.81
2023-05-01T09:27:23.060Z,100775.13
2023-05-01T09:29:56.106Z,100782.22
2023-05-01T09:32:30.053Z,100785.75
2023-05-01T09:35:12.833Z,100777.03
2023-05-01T09:37:41.760Z,100777.03
2023-05-01T09:40:14.972Z,100773.25
2023-05-01T09:42:54.040Z,100784.69
2023-05-01T09:45:23.748Z,100771.25
2023-05-01T09:47:52.104Z,100774.97
2023-05-01T09:50:34.632Z,100787.25
2023-05-01T09:53:05.294Z,100790.00
2023-05-01T09:55:36.047Z,100787.44
2023-05-01T09:58:04.246Z,100787.47
2023-05-01T10:00:49.214Z,100785.81
2023-05-01T10:03:17.470Z,100778.47
2023-05-01T10:05:46.629Z,100779.34
2023-05-01T10:08:15.379Z,100775.81
2023-05-01T10:10:44.081Z,100774.97
2023-05-01T10:13:18.375Z,100768.06
2023-05-01T10:15:50.602Z,100762.03
2023-05-01T10:18:18.710Z,100757.56
2023-05-01T10:20:47.370Z,100751.19
2023-05-01T10:23:15.514Z,100753.88
2023-05-01T10:25:44.798Z,100768.06
2023-05-01T10:28:13.026Z,100749.31
2023-05-01T10:30:42.881Z,100748.44
2023-05-01T10:33:13.879Z,100736.97
2023-05-01T10:35:46.464Z,100733.44
2023-05-01T10:38:23.118Z,100726.38
2023-05-01T10:40:51.962Z,100734.31
2023-05-01T10:43:30.692Z,100727.25
2023-05-01T10:46:07.980Z,100725.44
2023-05-01T10:48:39.193Z,100721.03
2023-05-01T10:51:12.348Z,100721.91
2023-05-01T10:53:42.535Z,100713.72
2023-05-01T10:56:26.845Z,100722.75
2023-05-01T10:58:58.129Z,100728.97
2023-05-01T11:01:37.215Z,100723.63
2023-05-01T11:04:05.852Z,100727.94
2023-05-01T11:06:35.269Z,100720.72
2023-05-01T11:09:42.109Z,100730.50
2023-05-01T11:12:11.911Z,100730.50
2023-05-01T11:14:56.855Z,100715.38
2023-05-01T11:17:41.825Z,100721.47
2023-05-01T11:20:12.009Z,100716.13
2023-05-01T11:22:46.628Z,100713.38
2023-05-01T11:25:19.266Z,100712.41
2023-05-01T11:28:06.957Z,100696.47
2023-05-01T11:30:39.200Z,100700.78
2023-05-01T11:33:11.687Z,100705.06
2023-05-01T11:35:39.880Z,100701.47
2023-05-01T11:38:19.021Z,100697.78
2023-05-01T11:40:55.655Z,100692.34
2023-05-01T11:43:25.342Z,100684.09
2023-05-01T11:45:55.540Z,100695.81
2023-05-01T11:48:24.164Z,100687.00
2023-05-01T11:50:52.303Z,100681.75
2023-05-01T11:53:21.010Z,100678.22
2023-05-01T11:55:49.708Z,100678.22
2023-05-01T11:58:32.197Z,100683.63
2023-05-01T12:01:00.426Z,100674.75
2023-05-01T12:03:42.129Z,100679.25
2023-05-01T12:06:13.868Z,100681.91
2023-05-01T12:08:45.418Z,100682.00
2023-05-01T12:11:13.989Z,100680.19
2023-05-01T12:13:42.638Z,100675.78
2023-05-01T12:16:11.772Z,100673.22
2023-05-01T12:18:40.242Z,100674.97
2023-05-01T12:21:16.314Z,100668.75
2023-05-01T12:23:44.744Z,100665.31
2023-05-01T12:26:26.130Z,100671.50
2023-05-01T12:28:59.267Z,100669.63
2023-05-01T12:31:28.387Z,100671.66
2023-05-01T12:34:04.730Z,100668.06
2023-05-01T12:36:37.370Z,100671.00
2023-05-01T12:39:07.519Z,100667.31
2023-05-01T12:41:43.511Z,100673.59
2023-05-01T12:44:20.921Z,100669.94
2023-05-01T12:47:06.803Z,100669.22
2023-05-01T12:49:37.447Z,100668.50
2023-05-01T12:52:07.643Z,100673.69
2023-05-01T12:54:40.730Z,100670.06
2023-05-01T12:57:14.799Z,100663.16
2023-05-01T12:59:45.970Z,100663.00
2023-05-01T13:02:16.308Z,100664.72
2023-05-01T13:04:45.316Z,100661.13
2023-05-01T13:07:15.868Z,100658.41
2023-05-01T13:09:59.092Z,100651.16
2023-05-01T13:12:28.822Z,100656.63
2023-05-01T13:14:58.012Z,100659.25
2023-05-01T13:17:31.369Z,100664.44
2023-05-01T13:20:02.626Z,100669.63
2023-05-01T13:22:33.347Z,100666.94
2023-05-01T13:25:06.186Z,100659.75
2023-05-01T13:27:35.184Z,100665.22
2023-05-01T13:30:04.124Z,100668.75
2023-05-01T13:32:32.506Z,100663.41
2023-05-01T13:35:01.713Z,100665.09
2023-05-01T13:37:31.565Z,100654.41
2023-05-01T13:40:00.489Z,100651.00
2023-05-01T13:42:28.978Z,100644.81
2023-05-01T13:44:58.518Z,100643.94
2023-05-01T13:47:27.602Z,100636.78
2023-05-01T13:49:56.907Z,100636.78
2023-05-01T13:52:25.342Z,100645.59
2023-05-01T13:54:56.458Z,100648.25
2023-05-01T13:57:25.620Z,100643.00
2023-05-01T13:59:54.325Z,100648.25
2023-05-01T14:02:27.778Z,100645.59
2023-05-01T14:04:58.370Z,100641.00
2023-05-01T14:07:28.401Z,100644.44
2023-05-01T14:10:02.369Z,100647.88
2023-05-01T14:12:32.258Z,100643.66
2023-05-01T14:15:02.349Z,100642.72
2023-05-01T14:17:36.423Z,100644.53
2023-05-01T14:20:05.902Z,100639.25
2023-05-01T14:22:45.814Z,100641.00
2023-05-01T14:25:19.875Z,100640.81
2023-05-01T14:27:48.317Z,100648.06
2023-05-01T14:30:26.567Z,100655.28
2023-05-01T14:32:55.414Z,100647.28
2023-05-01T14:35:24.788Z,100654.41
2023-05-01T14:37:53.062Z,100651.00
2023-05-01T14:40:30.444Z,100651.88
2023-05-01T14:42:58.625Z,100654.53
2023-05-01T14:45:29.476Z,100649.94
2023-05-01T14:47:57.931Z,100650.22
2023-05-01T14:50:26.591Z,100644.09
2023-05-01T14:52:59.483Z,100647.56
2023-05-01T14:55:34.968Z,100642.13
2023-05-01T14:58:03.786Z,100643.94
2023-05-01T15:00:32.284Z,100644.09
2023-05-01T15:03:01.527Z,100643.06
2023-05-01T15:05:33.750Z,100647.47
2023-05-01T15:08:02.092Z,100641.19
2023-05-01T15:10:31.969Z,100648.34
2023-05-01T15:13:00.138Z,100645.84
2023-05-01T15:15:28.692Z,100641.47
2023-05-01T15:17:57.002Z,100641.47
2023-05-01T15:20:25.807Z,100641.47
2023-05-01T15:22:54.181Z,100645.09
2023-05-01T15:25:23.036Z,100649.56
2023-05-01T15:27:51.702Z,100649.56
2023-05-01T15:30:20.459Z,100646.13
2023-05-01T15:32:48.735Z,100655.94
2023-05-01T15:35:18.177Z,100647.00
2023-05-01T15:37:46.382Z,100652.03
2023-05-01T15:40:15.062Z,100652.91
2023-05-01T15:42:43.464Z,100648.41
2023-05-01T15:45:12.048Z,100650.16
2023-05-01T15:47:40.334Z,100665.22
2023-05-01T15:50:11.888Z,100663.41
2023-05-01T15:52:40.113Z,100657.09
2023-05-01T15:55:08.860Z,100657.09
2023-05-01T15:57:37.376Z,100659.69
2023-05-01T16:00:08.628Z,100665.97
2023-05-01T16:02:36.880Z,100657.00
2023-05-01T16:07:51.484Z,100659.53
2023-05-01T16:10:19.905Z,100661.06
2023-05-01T16:12:50.738Z,100666.50
2023-05-01T16:15:19.154Z,100662.19
2023-05-01T16:17:48.060Z,100665.88
2023-05-01T16:20:17.600Z,100667.69
2023-05-01T16:22:45.715Z,100659.88
2023-05-01T16:25:14.295Z,100662.56
2023-05-01T16:27:44.690Z,100671.50
2023-05-01T16:30:16.733Z,100660.81
2023-05-01T16:32:45.112Z,100666.16
2023-05-01T16:35:18.699Z,100664.44
2023-05-01T16:37:46.736Z,100670.63
2023-05-01T16:40:18.712Z,100668.84
2023-05-01T16:42:54.350Z,100667.19
2023-05-01T16:45:22.993Z,100665.38
2023-05-01T16:47:51.712Z,100668.91
2023-05-01T16:50:22.302Z,100671.66
2023-05-01T16:52:52.259Z,100671.50
2023-05-01T16:55:20.916Z,100670.63
2023-05-01T16:57:49.220Z,100680.28
2023-05-01T17:00:17.892Z,100677.63
2023-05-01T17:02:49.371Z,100680.09
2023-05-01T17:05:17.880Z,100673.03
2023-05-01T17:07:45.890Z,100676.50
2023-05-01T17:10:14.584Z,100673.81
2023-05-01T17:12:43.230Z,100678.38
2023-05-01T17:15:11.782Z,100684.34
2023-05-01T17:17:39.894Z,100679.00
2023-05-01T17:20:09.134Z,100677.19
2023-05-01T17:22:37.211Z,100679.94
2023-05-01T17:25:06.249Z,100685.19
2023-05-01T17:27:34.335Z,100683.56
2023-05-01T17:30:03.025Z,100680.09
2023-05-01T17:32:36.846Z,100681.81
2023-05-01T17:35:06.378Z,100687.78
2023-05-01T17:37:34.380Z,100682.44
2023-05-01T17:40:04.958Z,100693.03
2023-05-01T17:42:33.060Z,100697.53
2023-05-01T17:45:01.489Z,100697.53
2023-05-01T17:47:31.078Z,100686.06
2023-05-01T17:50:01.129Z,100692.34
2023-05-01T17:52:29.449Z,100688.91
2023-05-01T17:54:57.909Z,100685.28
2023-05-01T17:57:26.108Z,100686.22
2023-05-01T17:59:54.444Z,100678.38
2023-05-01T18:02:23.172Z,100686.31
2023-05-01T18:04:51.672Z,100682.97
2023-05-01T18:07:19.831Z,100688.19
2023-05-01T18:09:48.551Z,100688.09
2023-05-01T18:12:16.675Z,100681.03
2023-05-01T18:14:45.144Z,100683.56
2023-05-01T18:17:13.522Z,100685.44
2023-05-01T18:19:42.104Z,100680.19
2023-05-01T18:22:10.335Z,100683.63
2023-05-01T18:24:38.792Z,100687.16
2023-05-01T18:27:06.966Z,100699.56
2023-05-01T18:29:35.979Z,100688.91
2023-05-01T18:32:04.623Z,100696.13
2023-05-01T18:34:32.883Z,100704.41
2023-05-01T18:37:01.208Z,100712.50
2023-05-01T18:39:29.573Z,100710.78
2023-05-01T18:41:57.515Z,100712.66
2023-05-01T18:44:25.877Z,100716.25
2023-05-01T18:46:53.922Z,100715.38
2023-05-01T18:49:24.258Z,100719.84
2023-05-01T18:51:52.291Z,100720.81
2023-05-01T18:54:20.907Z,100717.25
2023-05-01T18:56:49.540Z,100716.41
2023-05-01T18:59:17.964Z,100718.13
2023-05-01T19:01:45.989Z,100713.56
2023-05-01T19:04:14.437Z,100716.97
2023-05-01T19:06:42.468Z,100709.75
2023-05-01T19:09:11.353Z,100716.91
2023-05-01T19:11:39.593Z,100730.16
2023-05-01T19:14:07.944Z,100720.50
2023-05-01T19:16:36.068Z,100715.97
2023-05-01T19:19:04.489Z,100719.50
2023-05-01T19:21:32.610Z,100726.63
2023-05-01T19:24:01.209Z,100724.03
2023-05-01T19:26:29.465Z,100727.56
2023-05-01T19:28:57.741Z,100722.03
2023-05-01T19:31:25.902Z,100724.72
2023-05-01T19:33:55.353Z,100710.41
2023-05-01T19:36:23.713Z,100721.09
2023-05-01T19:38:51.984Z,100723.53
2023-05-01T19:41:21.033Z,100730.50
2023-05-01T19:43:49.140Z,100724.56
2023-05-01T19:46:17.894Z,100729.97
2023-05-01T19:48:46.311Z,100726.44
2023-05-01T19:51:14.947Z,100727.31
2023-05-01T19:53:43.211Z,100728.38
2023-05-01T19:56:11.668Z,100734.44
2023-05-01T19:58:39.813Z,100735.41
2023-05-01T20:01:11.900Z,100733.59
2023-05-01T20:03:40.514Z,100732.56
2023-05-01T20:06:10.512Z,100744.19
2023-05-01T20:08:38.609Z,100743.41
2023-05-01T20:11:07.548Z,100748.50
2023-05-01T20:13:37.054Z,100749.38
2023-05-01T20:16:05.775Z,100750.66
2023-05-01T20:18:33.845Z,100753.63
2023-05-01T20:21:02.832Z,100754.53
2023-05-01T20:23:31.102Z,100743.97
2023-05-01T20:26:00.197Z,100751.13
2023-05-01T20:28:28.722Z,100740.50
2023-05-01T20:30:57.395Z,100750.41
2023-05-01T20:33:25.879Z,100744.13
2023-05-01T20:35:54.373Z,100742.47
2023-05-01T20:38:22.807Z,100748.75
2023-05-01T20:40:51.238Z,100746.09
2023-05-01T20:43:19.324Z,100748.75
2023-05-01T20:45:47.822Z,100745.34
2023-05-01T20:48:16.050Z,100748.00
2023-05-01T20:50:45.837Z,100745.50
2023-05-01T20:53:13.957Z,100738.28
2023-05-01T20:55:42.274Z,100747.22
2023-05-01T20:58:10.402Z,100747.22
2023-05-01T21:00:38.761Z,100741.03
2023-05-01T21:03:07.028Z,100741.97
2023-05-01T21:05:35.682Z,100749.97
2023-05-01T21:08:03.751Z,100748.31
2023-05-01T21:10:32.707Z,100756.31
2023-05-01T21:13:00.713Z,100751.00
2023-05-01T21:15:31.302Z,100743.91
2023-05-01T21:17:59.947Z,100759.06
2023-05-01T21:20:33.239Z,100746.66
2023-05-01T21:23:02.225Z,100736.06
2023-05-01T21:25:32.130Z,100741.34
2023-05-01T21:28:05.648Z,100739.53
2023-05-01T21:30:35.666Z,100745.81
2023-05-01T21:33:08.704Z,100736.84
2023-05-01T21:35:37.201Z,100731.69
2023-05-01T21:38:05.182Z,100734.19
2023-05-01T21:40:37.088Z,100732.47
2023-05-01T21:43:06.041Z,100729.88
2023-05-01T21:45:40.450Z,100727.19
2023-05-01T21:48:11.722Z,100736.06
2023-05-01T21:50:40.085Z,100734.44
2023-05-01T21:53:08.135Z,100738.75
2023-05-01T21:55:36.404Z,100738.75
2023-05-01T21:58:04.492Z,100740.47
2023-05-01T22:00:33.213Z,100737.00
2023-05-01T22:03:06.202Z,100737.00
2023-05-01T22:05:34.829Z,100733.47
2023-05-01T22:08:02.906Z,100733.41
2023-05-01T22:10:31.791Z,100729.88
2023-05-01T22:12:59.709Z,100728.06
2023-05-01T22:15:27.989Z,100729.78
2023-05-01T22:17:56.894Z,100734.28
2023-05-01T22:20:25.237Z,100736.94
2023-05-01T22:22:53.304Z,100731.69
2023-05-01T22:25:21.779Z,100721.00
2023-05-01T22:27:49.742Z,100698.78
2023-05-01T22:30:18.011Z,100701.44
2023-05-01T22:32:46.168Z,100699.81
2023-05-01T22:35:14.601Z,100714.81
2023-05-01T22:37:42.553Z,100702.47
2023-05-01T22:40:11.204Z,100716.69
2023-05-01T22:42:39.210Z,100710.47
2023-05-01T22:45:08.928Z,100700.66
2023-05-01T22:47:36.984Z,100704.28
2023-05-01T22:50:05.819Z,100705.16
2023-05-01T22:52:33.838Z,100701.72
2023-05-01T22:55:02.455Z,100699.06
2023-05-01T22:57:30.653Z,100696.38
2023-05-01T22:59:59.321Z,100696.38
2023-05-01T23:02:27.775Z,100705.34
2023-05-01T23:04:56.145Z,100700.00
2023-05-01T23:07:24.094Z,100698.28
2023-05-01T23:09:52.586Z,100705.34
2023-05-01T23:12:23.569Z,100700.00
2023-05-01T23:14:51.984Z,100686.81
2023-05-01T23:17:19.986Z,100692.94
2023-05-01T23:19:48.292Z,100683.34
2023-05-01T23:22:16.231Z,100687.75
2023-05-01T23:24:48.833Z,100681.63
2023-05-01T23:27:18.300Z,100673.53
2023-05-01T23:29:59.906Z,100662.94
2023-05-01T23:32:30.540Z,100662.94
2023-05-01T23:35:20.630Z,100650.56
2023-05-01T23:37:49.500Z,100662.94
2023-05-01T23:40:17.994Z,100650.56
2023-05-01T23:42:46.794Z,100639.97
2023-05-01T23:45:15.485Z,100631.94
2023-05-01T23:47:43.490Z,100631.09
2023-05-01T23:50:11.896Z,100634.53
2023-05-01T23:52:39.876Z,100627.47
2023-05-01T23:55:08.355Z,100626.63
2023-05-01T23:57:36.435Z,100624.03
